sensor_id;sensor_type;location;lat;lon;timestamp;P1;durP1;ratioP1;P2;durP2;ratioP2
52067;SDS011;60237;52.338;21.228;2023-08-06T00:01:09;904.72;;;813.17;;
52067;SDS011;60237;52.338;21.228;2023-08-06T00:03:36;900.40;;;811.90;;
52067;SDS011;60237;52.338;21.228;2023-08-06T00:06:05;893.58;;;805.78;;
52067;SDS011;60237;52.338;21.228;2023-08-06T00:08:31;902.03;;;811.30;;
52067;SDS011;60237;52.338;21.228;2023-08-06T00:10:58;894.05;;;805.25;;
52067;SDS011;60237;52.338;21.228;2023-08-06T00:13:24;898.72;;;806.90;;
52067;SDS011;60237;52.338;21.228;2023-08-06T00:15:51;896.65;;;809.63;;
52067;SDS011;60237;52.338;21.228;2023-08-06T00:18:17;897.55;;;810.30;;
52067;SDS011;60237;52.338;21.228;2023-08-06T00:20:44;898.65;;;810.00;;
52067;SDS011;60237;52.338;21.228;2023-08-06T00:23:11;905.13;;;812.58;;
52067;SDS011;60237;52.338;21.228;2023-08-06T00:25:49;902.72;;;812.47;;
52067;SDS011;60237;52.338;21.228;2023-08-06T00:28:15;906.22;;;814.45;;
52067;SDS011;60237;52.338;21.228;2023-08-06T00:30:42;896.70;;;808.03;;
52067;SDS011;60237;52.338;21.228;2023-08-06T00:33:09;899.97;;;811.75;;
52067;SDS011;60237;52.338;21.228;2023-08-06T00:35:36;911.53;;;819.35;;
52067;SDS011;60237;52.338;21.228;2023-08-06T00:38:03;896.60;;;807.00;;
52067;SDS011;60237;52.338;21.228;2023-08-06T00:40:29;906.78;;;817.20;;
52067;SDS011;60237;52.338;21.228;2023-08-06T00:42:57;890.55;;;805.72;;
52067;SDS011;60237;52.338;21.228;2023-08-06T00:45:23;903.30;;;815.90;;
52067;SDS011;60237;52.338;21.228;2023-08-06T00:47:51;901.13;;;810.65;;
52067;SDS011;60237;52.338;21.228;2023-08-06T00:50:18;894.42;;;807.83;;
52067;SDS011;60237;52.338;21.228;2023-08-06T00:52:45;912.30;;;822.28;;
52067;SDS011;60237;52.338;21.228;2023-08-06T00:55:11;897.38;;;808.85;;
52067;SDS011;60237;52.338;21.228;2023-08-06T00:57:38;900.70;;;811.97;;
52067;SDS011;60237;52.338;21.228;2023-08-06T01:00:05;901.85;;;812.20;;
52067;SDS011;60237;52.338;21.228;2023-08-06T01:02:31;901.78;;;812.72;;
52067;SDS011;60237;52.338;21.228;2023-08-06T01:04:58;904.72;;;815.28;;
52067;SDS011;60237;52.338;21.228;2023-08-06T01:10:00;881.10;;;795.23;;
52067;SDS011;60237;52.338;21.228;2023-08-06T01:12:42;892.90;;;805.03;;
52067;SDS011;60237;52.338;21.228;2023-08-06T01:15:15;887.15;;;799.75;;
52067;SDS011;60237;52.338;21.228;2023-08-06T01:17:44;882.35;;;795.95;;
52067;SDS011;60237;52.338;21.228;2023-08-06T01:20:11;903.55;;;814.60;;
52067;SDS011;60237;52.338;21.228;2023-08-06T01:22:37;899.55;;;809.10;;
52067;SDS011;60237;52.338;21.228;2023-08-06T01:25:04;887.05;;;801.47;;
52067;SDS011;60237;52.338;21.228;2023-08-06T01:28:06;880.03;;;794.85;;
52067;SDS011;60237;52.338;21.228;2023-08-06T01:30:29;878.80;;;793.35;;
52067;SDS011;60237;52.338;21.228;2023-08-06T01:33:00;882.35;;;798.67;;
52067;SDS011;60237;52.338;21.228;2023-08-06T01:35:28;879.63;;;794.35;;
52067;SDS011;60237;52.338;21.228;2023-08-06T01:37:58;880.25;;;795.88;;
52067;SDS011;60237;52.338;21.228;2023-08-06T01:40:25;883.35;;;797.55;;
52067;SDS011;60237;52.338;21.228;2023-08-06T01:42:54;874.15;;;791.45;;
52067;SDS011;60237;52.338;21.228;2023-08-06T01:45:21;874.45;;;789.72;;
52067;SDS011;60237;52.338;21.228;2023-08-06T01:47:48;886.85;;;800.58;;
52067;SDS011;60237;52.338;21.228;2023-08-06T01:50:15;887.38;;;802.45;;
52067;SDS011;60237;52.338;21.228;2023-08-06T01:52:44;886.22;;;799.53;;
52067;SDS011;60237;52.338;21.228;2023-08-06T01:55:10;883.20;;;797.42;;
52067;SDS011;60237;52.338;21.228;2023-08-06T01:57:37;881.97;;;795.65;;
52067;SDS011;60237;52.338;21.228;2023-08-06T02:00:04;885.58;;;799.10;;
52067;SDS011;60237;52.338;21.228;2023-08-06T02:02:39;894.97;;;808.65;;
52067;SDS011;60237;52.338;21.228;2023-08-06T02:05:08;904.72;;;817.38;;
52067;SDS011;60237;52.338;21.228;2023-08-06T02:07:34;899.03;;;812.75;;
52067;SDS011;60237;52.338;21.228;2023-08-06T02:10:02;890.28;;;804.15;;
52067;SDS011;60237;52.338;21.228;2023-08-06T02:12:28;883.17;;;798.90;;
52067;SDS011;60237;52.338;21.228;2023-08-06T02:14:55;879.50;;;796.55;;
52067;SDS011;60237;52.338;21.228;2023-08-06T02:17:22;880.35;;;796.60;;
52067;SDS011;60237;52.338;21.228;2023-08-06T02:19:48;885.50;;;801.03;;
52067;SDS011;60237;52.338;21.228;2023-08-06T02:22:15;877.35;;;792.78;;
52067;SDS011;60237;52.338;21.228;2023-08-06T02:24:41;887.13;;;802.38;;
52067;SDS011;60237;52.338;21.228;2023-08-06T02:27:09;887.35;;;802.67;;
52067;SDS011;60237;52.338;21.228;2023-08-06T02:29:35;895.97;;;810.83;;
52067;SDS011;60237;52.338;21.228;2023-08-06T02:32:03;883.70;;;800.70;;
52067;SDS011;60237;52.338;21.228;2023-08-06T02:34:30;889.58;;;802.13;;
52067;SDS011;60237;52.338;21.228;2023-08-06T02:36:56;881.97;;;799.47;;
52067;SDS011;60237;52.338;21.228;2023-08-06T02:39:23;892.88;;;806.95;;
52067;SDS011;60237;52.338;21.228;2023-08-06T02:41:50;885.13;;;802.95;;
52067;SDS011;60237;52.338;21.228;2023-08-06T02:44:17;893.88;;;808.53;;
52067;SDS011;60237;52.338;21.228;2023-08-06T02:46:44;894.80;;;807.13;;
52067;SDS011;60237;52.338;21.228;2023-08-06T02:49:12;886.22;;;802.65;;
52067;SDS011;60237;52.338;21.228;2023-08-06T02:51:38;888.65;;;803.90;;
52067;SDS011;60237;52.338;21.228;2023-08-06T02:54:05;886.92;;;802.92;;
52067;SDS011;60237;52.338;21.228;2023-08-06T02:56:33;889.90;;;804.75;;
52067;SDS011;60237;52.338;21.228;2023-08-06T02:59:15;881.38;;;798.65;;
52067;SDS011;60237;52.338;21.228;2023-08-06T03:01:51;891.83;;;807.13;;
52067;SDS011;60237;52.338;21.228;2023-08-06T03:04:26;891.35;;;808.30;;
52067;SDS011;60237;52.338;21.228;2023-08-06T03:06:53;894.00;;;808.75;;
52067;SDS011;60237;52.338;21.228;2023-08-06T03:09:24;897.20;;;810.78;;
52067;SDS011;60237;52.338;21.228;2023-08-06T03:11:51;892.67;;;809.22;;
52067;SDS011;60237;52.338;21.228;2023-08-06T03:14:18;889.03;;;805.25;;
52067;SDS011;60237;52.338;21.228;2023-08-06T03:16:45;897.65;;;810.13;;
52067;SDS011;60237;52.338;21.228;2023-08-06T03:19:14;894.10;;;809.55;;
52067;SDS011;60237;52.338;21.228;2023-08-06T03:21:41;900.75;;;816.40;;
52067;SDS011;60237;52.338;21.228;2023-08-06T03:24:08;899.53;;;812.30;;
52067;SDS011;60237;52.338;21.228;2023-08-06T03:26:37;898.55;;;814.47;;
52067;SDS011;60237;52.338;21.228;2023-08-06T03:29:04;901.08;;;813.75;;
52067;SDS011;60237;52.338;21.228;2023-08-06T03:31:33;909.78;;;821.97;;
52067;SDS011;60237;52.338;21.228;2023-08-06T03:34:00;893.53;;;810.70;;
52067;SDS011;60237;52.338;21.228;2023-08-06T03:36:29;896.33;;;811.85;;
52067;SDS011;60237;52.338;21.228;2023-08-06T03:38:56;893.35;;;809.33;;
52067;SDS011;60237;52.338;21.228;2023-08-06T03:41:22;896.63;;;813.00;;
52067;SDS011;60237;52.338;21.228;2023-08-06T03:43:49;905.03;;;819.03;;
52067;SDS011;60237;52.338;21.228;2023-08-06T03:46:21;900.10;;;815.80;;
52067;SDS011;60237;52.338;21.228;2023-08-06T03:48:48;900.40;;;815.75;;
52067;SDS011;60237;52.338;21.228;2023-08-06T03:51:15;902.78;;;817.95;;
52067;SDS011;60237;52.338;21.228;2023-08-06T03:53:43;892.72;;;807.58;;
52067;SDS011;60237;52.338;21.228;2023-08-06T03:56:10;910.28;;;822.35;;
52067;SDS011;60237;52.338;21.228;2023-08-06T03:58:36;914.55;;;823.45;;
52067;SDS011;60237;52.338;21.228;2023-08-06T04:01:03;905.70;;;821.13;;
52067;SDS011;60237;52.338;21.228;2023-08-06T04:03:36;905.60;;;820.17;;
52067;SDS011;60237;52.338;21.228;2023-08-06T04:06:03;902.72;;;818.50;;
52067;SDS011;60237;52.338;21.228;2023-08-06T04:08:29;911.55;;;827.55;;
52067;SDS011;60237;52.338;21.228;2023-08-06T04:10:56;902.97;;;817.85;;
52067;SDS011;60237;52.338;21.228;2023-08-06T04:13:23;903.40;;;818.80;;
52067;SDS011;60237;52.338;21.228;2023-08-06T04:15:49;905.30;;;822.22;;
52067;SDS011;60237;52.338;21.228;2023-08-06T04:18:16;915.15;;;830.80;;
52067;SDS011;60237;52.338;21.228;2023-08-06T04:20:43;908.40;;;822.45;;
52067;SDS011;60237;52.338;21.228;2023-08-06T04:23:10;913.55;;;825.75;;
52067;SDS011;60237;52.338;21.228;2023-08-06T04:25:38;918.03;;;829.55;;
52067;SDS011;60237;52.338;21.228;2023-08-06T04:28:04;906.47;;;822.85;;
52067;SDS011;60237;52.338;21.228;2023-08-06T04:30:31;912.70;;;828.50;;
52067;SDS011;60237;52.338;21.228;2023-08-06T04:32:58;922.53;;;837.72;;
52067;SDS011;60237;52.338;21.228;2023-08-06T04:35:26;914.55;;;831.38;;
52067;SDS011;60237;52.338;21.228;2023-08-06T04:37:52;913.42;;;829.60;;
52067;SDS011;60237;52.338;21.228;2023-08-06T04:40:19;916.17;;;832.40;;
52067;SDS011;60237;52.338;21.228;2023-08-06T04:42:45;921.90;;;835.80;;
52067;SDS011;60237;52.338;21.228;2023-08-06T04:45:12;921.85;;;837.13;;
52067;SDS011;60237;52.338;21.228;2023-08-06T04:47:39;921.65;;;837.10;;
52067;SDS011;60237;52.338;21.228;2023-08-06T04:50:05;923.28;;;837.88;;
52067;SDS011;60237;52.338;21.228;2023-08-06T04:52:32;940.22;;;849.78;;
52067;SDS011;60237;52.338;21.228;2023-08-06T04:54:58;941.33;;;854.50;;
52067;SDS011;60237;52.338;21.228;2023-08-06T04:57:25;951.22;;;865.45;;
52067;SDS011;60237;52.338;21.228;2023-08-06T04:59:52;971.78;;;884.22;;
52067;SDS011;60237;52.338;21.228;2023-08-06T05:02:18;995.20;;;905.58;;
52067;SDS011;60237;52.338;21.228;2023-08-06T05:04:45;1018.78;;;922.70;;
52067;SDS011;60237;52.338;21.228;2023-08-06T05:07:11;1028.68;;;934.22;;
52067;SDS011;60237;52.338;21.228;2023-08-06T05:09:38;1033.22;;;941.92;;
52067;SDS011;60237;52.338;21.228;2023-08-06T05:12:06;1042.75;;;950.15;;
52067;SDS011;60237;52.338;21.228;2023-08-06T05:14:32;1052.40;;;956.95;;
52067;SDS011;60237;52.338;21.228;2023-08-06T05:16:59;1054.53;;;961.92;;
52067;SDS011;60237;52.338;21.228;2023-08-06T05:19:26;1055.32;;;962.38;;
52067;SDS011;60237;52.338;21.228;2023-08-06T05:21:52;1059.32;;;965.40;;
52067;SDS011;60237;52.338;21.228;2023-08-06T05:24:19;1077.80;;;979.55;;
52067;SDS011;60237;52.338;21.228;2023-08-06T05:26:48;1074.45;;;979.20;;
52067;SDS011;60237;52.338;21.228;2023-08-06T05:29:16;1075.72;;;980.63;;
52067;SDS011;60237;52.338;21.228;2023-08-06T05:31:42;1091.18;;;992.10;;
52067;SDS011;60237;52.338;21.228;2023-08-06T05:34:09;1096.50;;;997.80;;
52067;SDS011;60237;52.338;21.228;2023-08-06T05:36:35;1104.25;;;999.70;;
52067;SDS011;60237;52.338;21.228;2023-08-06T05:39:02;1107.13;;;999.90;;
52067;SDS011;60237;52.338;21.228;2023-08-06T05:41:29;1115.55;;;999.90;;
52067;SDS011;60237;52.338;21.228;2023-08-06T05:43:55;1123.90;;;999.90;;
52067;SDS011;60237;52.338;21.228;2023-08-06T05:46:22;1131.97;;;999.90;;
52067;SDS011;60237;52.338;21.228;2023-08-06T05:48:49;1128.00;;;999.90;;
52067;SDS011;60237;52.338;21.228;2023-08-06T05:51:17;1133.85;;;999.90;;
52067;SDS011;60237;52.338;21.228;2023-08-06T05:53:44;1132.05;;;999.90;;
52067;SDS011;60237;52.338;21.228;2023-08-06T05:56:12;1134.35;;;999.90;;
52067;SDS011;60237;52.338;21.228;2023-08-06T05:58:39;1143.65;;;999.90;;
52067;SDS011;60237;52.338;21.228;2023-08-06T06:01:05;1130.18;;;999.90;;
52067;SDS011;60237;52.338;21.228;2023-08-06T06:03:32;1137.18;;;999.90;;
52067;SDS011;60237;52.338;21.228;2023-08-06T06:06:00;1135.93;;;999.90;;
52067;SDS011;60237;52.338;21.228;2023-08-06T06:08:27;1144.22;;;999.90;;
52067;SDS011;60237;52.338;21.228;2023-08-06T06:10:53;1148.47;;;999.90;;
52067;SDS011;60237;52.338;21.228;2023-08-06T06:13:20;1155.22;;;999.90;;
52067;SDS011;60237;52.338;21.228;2023-08-06T06:15:46;1161.28;;;999.90;;
52067;SDS011;60237;52.338;21.228;2023-08-06T06:18:13;1169.15;;;999.90;;
52067;SDS011;60237;52.338;21.228;2023-08-06T06:20:40;1178.57;;;999.90;;
52067;SDS011;60237;52.338;21.228;2023-08-06T06:23:06;1185.82;;;999.90;;
52067;SDS011;60237;52.338;21.228;2023-08-06T06:25:33;1195.15;;;999.90;;
52067;SDS011;60237;52.338;21.228;2023-08-06T06:28:00;1198.85;;;999.90;;
52067;SDS011;60237;52.338;21.228;2023-08-06T06:30:26;1196.57;;;999.90;;
52067;SDS011;60237;52.338;21.228;2023-08-06T06:32:53;1201.63;;;999.90;;
52067;SDS011;60237;52.338;21.228;2023-08-06T06:35:19;1209.25;;;999.90;;
52067;SDS011;60237;52.338;21.228;2023-08-06T06:37:46;1219.53;;;999.90;;
52067;SDS011;60237;52.338;21.228;2023-08-06T06:40:12;1209.57;;;999.90;;
52067;SDS011;60237;52.338;21.228;2023-08-06T06:42:39;1215.63;;;999.90;;
52067;SDS011;60237;52.338;21.228;2023-08-06T06:45:07;1216.95;;;999.90;;
52067;SDS011;60237;52.338;21.228;2023-08-06T06:47:34;1218.88;;;999.90;;
52067;SDS011;60237;52.338;21.228;2023-08-06T06:50:01;1214.85;;;999.90;;
52067;SDS011;60237;52.338;21.228;2023-08-06T06:52:28;1211.60;;;999.90;;
52067;SDS011;60237;52.338;21.228;2023-08-06T06:54:54;1213.10;;;999.90;;
52067;SDS011;60237;52.338;21.228;2023-08-06T06:57:21;1219.90;;;999.90;;
52067;SDS011;60237;52.338;21.228;2023-08-06T06:59:47;1220.55;;;999.90;;
52067;SDS011;60237;52.338;21.228;2023-08-06T07:02:14;1220.28;;;999.90;;
52067;SDS011;60237;52.338;21.228;2023-08-06T07:04:40;1232.93;;;999.90;;
52067;SDS011;60237;52.338;21.228;2023-08-06T07:07:07;1224.05;;;999.90;;
52067;SDS011;60237;52.338;21.228;2023-08-06T07:09:34;1218.57;;;999.90;;
52067;SDS011;60237;52.338;21.228;2023-08-06T07:12:00;1217.93;;;999.90;;
52067;SDS011;60237;52.338;21.228;2023-08-06T07:14:28;1222.85;;;999.90;;
52067;SDS011;60237;52.338;21.228;2023-08-06T07:16:55;1225.78;;;999.90;;
52067;SDS011;60237;52.338;21.228;2023-08-06T07:19:21;1226.82;;;999.90;;
52067;SDS011;60237;52.338;21.228;2023-08-06T07:21:48;1233.70;;;999.90;;
52067;SDS011;60237;52.338;21.228;2023-08-06T07:24:15;1240.55;;;999.90;;
52067;SDS011;60237;52.338;21.228;2023-08-06T07:26:41;1241.55;;;999.90;;
52067;SDS011;60237;52.338;21.228;2023-08-06T07:29:08;1241.35;;;999.90;;
52067;SDS011;60237;52.338;21.228;2023-08-06T07:31:34;1241.55;;;999.90;;
52067;SDS011;60237;52.338;21.228;2023-08-06T07:34:01;1237.68;;;999.90;;
52067;SDS011;60237;52.338;21.228;2023-08-06T07:36:28;1245.50;;;999.90;;
52067;SDS011;60237;52.338;21.228;2023-08-06T07:38:54;1236.90;;;999.90;;
52067;SDS011;60237;52.338;21.228;2023-08-06T07:41:23;1231.15;;;999.90;;
52067;SDS011;60237;52.338;21.228;2023-08-06T07:43:50;1241.82;;;999.90;;
52067;SDS011;60237;52.338;21.228;2023-08-06T07:46:16;1232.90;;;999.90;;
52067;SDS011;60237;52.338;21.228;2023-08-06T07:48:43;1236.75;;;999.90;;
52067;SDS011;60237;52.338;21.228;2023-08-06T07:51:10;1232.75;;;999.90;;
52067;SDS011;60237;52.338;21.228;2023-08-06T07:53:36;1226.47;;;999.90;;
52067;SDS011;60237;52.338;21.228;2023-08-06T07:56:03;1222.93;;;999.90;;
52067;SDS011;60237;52.338;21.228;2023-08-06T07:58:30;1220.35;;;999.90;;
52067;SDS011;60237;52.338;21.228;2023-08-06T08:00:56;1206.13;;;999.90;;
52067;SDS011;60237;52.338;21.228;2023-08-06T08:03:23;1203.93;;;999.90;;
52067;SDS011;60237;52.338;21.228;2023-08-06T08:05:50;1198.35;;;999.90;;
52067;SDS011;60237;52.338;21.228;2023-08-06T08:08:18;1192.88;;;999.90;;
52067;SDS011;60237;52.338;21.228;2023-08-06T08:10:45;1199.57;;;999.90;;
52067;SDS011;60237;52.338;21.228;2023-08-06T08:13:11;1183.68;;;999.90;;
52067;SDS011;60237;52.338;21.228;2023-08-06T08:15:38;1178.95;;;999.90;;
52067;SDS011;60237;52.338;21.228;2023-08-06T08:18:04;1176.47;;;999.90;;
52067;SDS011;60237;52.338;21.228;2023-08-06T08:20:31;1181.13;;;999.90;;
52067;SDS011;60237;52.338;21.228;2023-08-06T08:22:59;1176.47;;;999.90;;
52067;SDS011;60237;52.338;21.228;2023-08-06T08:25:27;1168.00;;;999.90;;
52067;SDS011;60237;52.338;21.228;2023-08-06T08:27:57;1166.43;;;999.90;;
52067;SDS011;60237;52.338;21.228;2023-08-06T08:30:23;1175.10;;;999.90;;
52067;SDS011;60237;52.338;21.228;2023-08-06T08:32:52;1177.80;;;999.90;;
52067;SDS011;60237;52.338;21.228;2023-08-06T08:35:18;1173.00;;;999.90;;
52067;SDS011;60237;52.338;21.228;2023-08-06T08:37:45;1181.22;;;999.90;;
52067;SDS011;60237;52.338;21.228;2023-08-06T08:40:13;1170.72;;;999.90;;
52067;SDS011;60237;52.338;21.228;2023-08-06T08:42:40;1172.75;;;999.90;;
52067;SDS011;60237;52.338;21.228;2023-08-06T08:45:13;1161.90;;;999.90;;
52067;SDS011;60237;52.338;21.228;2023-08-06T08:47:41;1161.28;;;999.90;;
52067;SDS011;60237;52.338;21.228;2023-08-06T08:50:09;1170.47;;;999.90;;
52067;SDS011;60237;52.338;21.228;2023-08-06T08:52:38;1167.20;;;999.90;;
52067;SDS011;60237;52.338;21.228;2023-08-06T08:55:05;1163.38;;;999.90;;
52067;SDS011;60237;52.338;21.228;2023-08-06T08:57:33;1166.20;;;999.90;;
52067;SDS011;60237;52.338;21.228;2023-08-06T08:59:59;1166.85;;;999.90;;
52067;SDS011;60237;52.338;21.228;2023-08-06T09:02:28;1165.95;;;999.90;;
52067;SDS011;60237;52.338;21.228;2023-08-06T09:04:56;1167.68;;;999.90;;
52067;SDS011;60237;52.338;21.228;2023-08-06T09:07:26;1162.03;;;999.90;;
52067;SDS011;60237;52.338;21.228;2023-08-06T09:09:53;1162.15;;;999.90;;
52067;SDS011;60237;52.338;21.228;2023-08-06T09:12:20;1159.13;;;999.90;;
52067;SDS011;60237;52.338;21.228;2023-08-06T09:14:47;1157.95;;;999.90;;
52067;SDS011;60237;52.338;21.228;2023-08-06T09:17:14;1160.63;;;999.90;;
52067;SDS011;60237;52.338;21.228;2023-08-06T09:19:44;1170.30;;;999.90;;
52067;SDS011;60237;52.338;21.228;2023-08-06T09:22:12;1160.82;;;999.90;;
52067;SDS011;60237;52.338;21.228;2023-08-06T09:24:43;1159.30;;;999.90;;
52067;SDS011;60237;52.338;21.228;2023-08-06T09:27:13;1172.50;;;999.90;;
52067;SDS011;60237;52.338;21.228;2023-08-06T09:29:41;1164.93;;;999.90;;
52067;SDS011;60237;52.338;21.228;2023-08-06T09:32:08;1166.88;;;999.90;;
52067;SDS011;60237;52.338;21.228;2023-08-06T09:34:35;1175.53;;;999.90;;
52067;SDS011;60237;52.338;21.228;2023-08-06T09:37:02;1174.63;;;999.90;;
52067;SDS011;60237;52.338;21.228;2023-08-06T09:39:30;1180.90;;;999.90;;
52067;SDS011;60237;52.338;21.228;2023-08-06T09:41:58;1164.38;;;999.90;;
52067;SDS011;60237;52.338;21.228;2023-08-06T09:44:29;1170.40;;;999.90;;
52067;SDS011;60237;52.338;21.228;2023-08-06T09:46:57;1173.05;;;999.90;;
52067;SDS011;60237;52.338;21.228;2023-08-06T09:49:27;1167.65;;;999.90;;
52067;SDS011;60237;52.338;21.228;2023-08-06T09:51:54;1167.90;;;999.90;;
52067;SDS011;60237;52.338;21.228;2023-08-06T09:54:24;1177.03;;;999.90;;
52067;SDS011;60237;52.338;21.228;2023-08-06T09:56:54;1168.75;;;999.90;;
52067;SDS011;60237;52.338;21.228;2023-08-06T09:59:22;1173.28;;;999.90;;
52067;SDS011;60237;52.338;21.228;2023-08-06T10:01:49;1185.95;;;999.90;;
52067;SDS011;60237;52.338;21.228;2023-08-06T10:04:16;1175.30;;;999.90;;
52067;SDS011;60237;52.338;21.228;2023-08-06T10:06:49;1171.10;;;999.90;;
52067;SDS011;60237;52.338;21.228;2023-08-06T10:09:15;1181.65;;;999.90;;
52067;SDS011;60237;52.338;21.228;2023-08-06T10:11:42;1177.07;;;999.90;;
52067;SDS011;60237;52.338;21.228;2023-08-06T10:14:11;1181.03;;;999.90;;
52067;SDS011;60237;52.338;21.228;2023-08-06T10:16:39;1185.25;;;999.90;;
52067;SDS011;60237;52.338;21.228;2023-08-06T10:19:07;1186.70;;;999.90;;
52067;SDS011;60237;52.338;21.228;2023-08-06T10:21:35;1185.22;;;999.90;;
52067;SDS011;60237;52.338;21.228;2023-08-06T10:24:02;1185.97;;;999.90;;
52067;SDS011;60237;52.338;21.228;2023-08-06T10:26:29;1182.05;;;999.90;;
52067;SDS011;60237;52.338;21.228;2023-08-06T10:28:57;1187.35;;;999.90;;
52067;SDS011;60237;52.338;21.228;2023-08-06T10:34:08;1183.30;;;999.90;;
52067;SDS011;60237;52.338;21.228;2023-08-06T10:36:35;1176.90;;;999.90;;
52067;SDS011;60237;52.338;21.228;2023-08-06T10:39:02;1177.90;;;999.90;;
52067;SDS011;60237;52.338;21.228;2023-08-06T10:41:29;1177.68;;;999.90;;
52067;SDS011;60237;52.338;21.228;2023-08-06T10:44:08;1176.78;;;999.90;;
52067;SDS011;60237;52.338;21.228;2023-08-06T10:46:35;1185.07;;;999.90;;
52067;SDS011;60237;52.338;21.228;2023-08-06T10:49:02;1179.45;;;999.90;;
52067;SDS011;60237;52.338;21.228;2023-08-06T10:51:29;1184.00;;;999.90;;
52067;SDS011;60237;52.338;21.228;2023-08-06T10:53:56;1183.75;;;999.90;;
52067;SDS011;60237;52.338;21.228;2023-08-06T10:56:24;1186.28;;;999.90;;
52067;SDS011;60237;52.338;21.228;2023-08-06T10:58:55;1195.90;;;999.90;;
52067;SDS011;60237;52.338;21.228;2023-08-06T11:01:28;1192.97;;;999.90;;
52067;SDS011;60237;52.338;21.228;2023-08-06T11:03:55;1192.28;;;999.90;;
52067;SDS011;60237;52.338;21.228;2023-08-06T11:06:23;1195.50;;;999.90;;
52067;SDS011;60237;52.338;21.228;2023-08-06T11:08:50;1183.55;;;999.90;;
52067;SDS011;60237;52.338;21.228;2023-08-06T11:11:17;1186.97;;;999.90;;
52067;SDS011;60237;52.338;21.228;2023-08-06T11:13:44;1199.53;;;999.90;;
52067;SDS011;60237;52.338;21.228;2023-08-06T11:16:14;1187.25;;;999.90;;
52067;SDS011;60237;52.338;21.228;2023-08-06T11:18:41;1189.32;;;999.90;;
52067;SDS011;60237;52.338;21.228;2023-08-06T11:21:09;1194.40;;;999.90;;
52067;SDS011;60237;52.338;21.228;2023-08-06T11:23:35;1181.78;;;999.90;;
52067;SDS011;60237;52.338;21.228;2023-08-06T11:26:02;1180.05;;;999.90;;
52067;SDS011;60237;52.338;21.228;2023-08-06T11:28:29;1187.35;;;999.90;;
52067;SDS011;60237;52.338;21.228;2023-08-06T11:30:56;1186.70;;;999.90;;
52067;SDS011;60237;52.338;21.228;2023-08-06T11:33:24;1181.03;;;999.90;;
52067;SDS011;60237;52.338;21.228;2023-08-06T11:35:54;1204.03;;;999.90;;
52067;SDS011;60237;52.338;21.228;2023-08-06T11:38:21;1188.43;;;999.90;;
52067;SDS011;60237;52.338;21.228;2023-08-06T11:40:48;1190.40;;;999.90;;
52067;SDS011;60237;52.338;21.228;2023-08-06T11:43:14;1181.18;;;999.90;;
52067;SDS011;60237;52.338;21.228;2023-08-06T11:45:41;1179.00;;;999.90;;
52067;SDS011;60237;52.338;21.228;2023-08-06T11:48:08;1181.88;;;999.90;;
52067;SDS011;60237;52.338;21.228;2023-08-06T11:50:37;1177.00;;;999.90;;
52067;SDS011;60237;52.338;21.228;2023-08-06T11:53:07;1179.30;;;999.90;;
52067;SDS011;60237;52.338;21.228;2023-08-06T11:55:33;1169.82;;;999.90;;
52067;SDS011;60237;52.338;21.228;2023-08-06T11:58:04;1177.93;;;999.90;;
52067;SDS011;60237;52.338;21.228;2023-08-06T12:00:31;1174.82;;;999.90;;
52067;SDS011;60237;52.338;21.228;2023-08-06T12:02:58;1175.72;;;999.90;;
52067;SDS011;60237;52.338;21.228;2023-08-06T12:05:31;1169.40;;;999.90;;
52067;SDS011;60237;52.338;21.228;2023-08-06T12:08:00;1172.80;;;999.90;;
52067;SDS011;60237;52.338;21.228;2023-08-06T12:10:28;1166.90;;;999.90;;
52067;SDS011;60237;52.338;21.228;2023-08-06T12:12:55;1178.25;;;999.90;;
52067;SDS011;60237;52.338;21.228;2023-08-06T12:15:22;1180.03;;;999.90;;
52067;SDS011;60237;52.338;21.228;2023-08-06T12:17:48;1171.30;;;999.90;;
52067;SDS011;60237;52.338;21.228;2023-08-06T12:20:15;1178.05;;;999.90;;
52067;SDS011;60237;52.338;21.228;2023-08-06T12:22:42;1175.32;;;999.90;;
52067;SDS011;60237;52.338;21.228;2023-08-06T12:25:09;1173.65;;;999.90;;
52067;SDS011;60237;52.338;21.228;2023-08-06T12:27:38;1170.80;;;999.90;;
52067;SDS011;60237;52.338;21.228;2023-08-06T12:30:05;1168.07;;;999.90;;
52067;SDS011;60237;52.338;21.228;2023-08-06T12:32:33;1169.10;;;999.90;;
52067;SDS011;60237;52.338;21.228;2023-08-06T12:35:00;1171.10;;;999.90;;
52067;SDS011;60237;52.338;21.228;2023-08-06T12:37:29;1163.70;;;999.90;;
52067;SDS011;60237;52.338;21.228;2023-08-06T12:39:56;1161.68;;;999.90;;
52067;SDS011;60237;52.338;21.228;2023-08-06T12:42:23;1164.65;;;999.90;;
52067;SDS011;60237;52.338;21.228;2023-08-06T12:44:50;1160.88;;;999.90;;
52067;SDS011;60237;52.338;21.228;2023-08-06T12:47:17;1163.18;;;999.90;;
52067;SDS011;60237;52.338;21.228;2023-08-06T12:49:44;1169.85;;;999.90;;
52067;SDS011;60237;52.338;21.228;2023-08-06T12:52:10;1163.28;;;999.90;;
52067;SDS011;60237;52.338;21.228;2023-08-06T12:54:39;1158.85;;;999.90;;
52067;SDS011;60237;52.338;21.228;2023-08-06T12:57:05;1158.75;;;999.90;;
52067;SDS011;60237;52.338;21.228;2023-08-06T12:59:32;1154.30;;;999.90;;
52067;SDS011;60237;52.338;21.228;2023-08-06T13:02:00;1157.60;;;999.90;;
52067;SDS011;60237;52.338;21.228;2023-08-06T13:04:26;1158.93;;;999.90;;
52067;SDS011;60237;52.338;21.228;2023-08-06T13:06:54;1154.22;;;999.90;;
52067;SDS011;60237;52.338;21.228;2023-08-06T13:09:20;1157.68;;;999.90;;
52067;SDS011;60237;52.338;21.228;2023-08-06T13:11:47;1151.13;;;999.90;;
52067;SDS011;60237;52.338;21.228;2023-08-06T13:14:16;1154.57;;;999.90;;
52067;SDS011;60237;52.338;21.228;2023-08-06T13:16:43;1160.53;;;999.90;;
52067;SDS011;60237;52.338;21.228;2023-08-06T13:19:10;1158.47;;;999.90;;
52067;SDS011;60237;52.338;21.228;2023-08-06T13:24:12;1159.32;;;999.90;;
52067;SDS011;60237;52.338;21.228;2023-08-06T13:26:38;1157.35;;;999.90;;
52067;SDS011;60237;52.338;21.228;2023-08-06T13:29:05;1163.45;;;999.90;;
52067;SDS011;60237;52.338;21.228;2023-08-06T13:31:33;1156.85;;;999.90;;
52067;SDS011;60237;52.338;21.228;2023-08-06T13:34:00;1161.43;;;999.90;;
52067;SDS011;60237;52.338;21.228;2023-08-06T13:36:27;1161.35;;;999.90;;
52067;SDS011;60237;52.338;21.228;2023-08-06T13:38:53;1165.65;;;999.90;;
52067;SDS011;60237;52.338;21.228;2023-08-06T13:41:20;1164.35;;;999.90;;
52067;SDS011;60237;52.338;21.228;2023-08-06T13:43:47;1180.30;;;999.90;;
52067;SDS011;60237;52.338;21.228;2023-08-06T13:46:13;1166.40;;;999.90;;